Archival Weather

Norman Y Mineta San Jose Intl

San Jose, California (KSJC)

Report from: Saturday, February 10, 2024 4:53 AM PST
Current time: Friday, June 14, 2024 5:56 AM PDT

Current weather – Weather history – Daily summaries
Weather forecast

Temperature6.1°C (43.0°F)
Dew point3.3°C (37.9°F)
Winds Calm
Visibility8 mi. (12.9 km)
Clouds Sky clear
Altimeter30.11 in.Hg (1020 mB)
Relative humidity82 %
Density altitude-1,171 ft. (-357 m)
Sea-level pressure102.0 kPa (1020 mB, 30.11 in.Hg)
Remarks Fully automated report
Automated weather observing station with precipitation discriminator
Flight conditions Visual Meteorological Conditions
Raw dataKSJC 101253Z AUTO 00000KT 8SM CLR 06/03 A3011 RMK AO2 SLP195 T00610033
An error has occurred. This application may no longer respond until reloaded. Reload 🗙